sensor_id;sensor_type;location;lat;lon;timestamp;temperature;humidity
74511;DHT22;62991;50.040;18.400;2022-10-13T00:01:52;13.30;48.90
74511;DHT22;62991;50.040;18.400;2022-10-13T00:04:52;13.20;49.00
74511;DHT22;62991;50.040;18.400;2022-10-13T00:07:53;13.20;49.10
74511;DHT22;62991;50.040;18.400;2022-10-13T00:10:54;13.20;49.10
74511;DHT22;62991;50.040;18.400;2022-10-13T00:13:57;13.10;49.20
74511;DHT22;62991;50.040;18.400;2022-10-13T00:16:58;13.10;49.20
74511;DHT22;62991;50.040;18.400;2022-10-13T00:19:59;13.00;49.30
74511;DHT22;62991;50.040;18.400;2022-10-13T00:23:00;13.00;49.30
74511;DHT22;62991;50.040;18.400;2022-10-13T00:26:03;13.00;49.40
74511;DHT22;62991;50.040;18.400;2022-10-13T00:29:04;13.00;49.40
74511;DHT22;62991;50.040;18.400;2022-10-13T00:32:05;12.90;49.50
74511;DHT22;62991;50.040;18.400;2022-10-13T00:35:06;12.90;49.60
74511;DHT22;62991;50.040;18.400;2022-10-13T00:38:06;12.80;49.60
74511;DHT22;62991;50.040;18.400;2022-10-13T00:41:07;12.80;49.60
74511;DHT22;62991;50.040;18.400;2022-10-13T00:47:50;12.70;49.80
74511;DHT22;62991;50.040;18.400;2022-10-13T00:50:53;12.70;49.80
74511;DHT22;62991;50.040;18.400;2022-10-13T00:53:54;12.70;49.90
74511;DHT22;62991;50.040;18.400;2022-10-13T00:56:56;12.60;49.90
74511;DHT22;62991;50.040;18.400;2022-10-13T00:59:57;12.60;50.00
74511;DHT22;62991;50.040;18.400;2022-10-13T01:02:58;12.50;50.10
74511;DHT22;62991;50.040;18.400;2022-10-13T01:06:02;12.50;50.10
74511;DHT22;62991;50.040;18.400;2022-10-13T01:09:03;12.50;50.20
74511;DHT22;62991;50.040;18.400;2022-10-13T01:12:25;12.40;50.30
74511;DHT22;62991;50.040;18.400;2022-10-13T01:15:44;12.40;50.40
74511;DHT22;62991;50.040;18.400;2022-10-13T01:22:22;12.30;50.40
74511;DHT22;62991;50.040;18.400;2022-10-13T01:35:12;12.20;50.80
74511;DHT22;62991;50.040;18.400;2022-10-13T01:41:39;12.10;50.80
74511;DHT22;62991;50.040;18.400;2022-10-13T01:44:45;12.10;50.90
74511;DHT22;62991;50.040;18.400;2022-10-13T01:47:48;12.10;51.00
74511;DHT22;62991;50.040;18.400;2022-10-13T01:50:49;12.10;51.00
74511;DHT22;62991;50.040;18.400;2022-10-13T01:53:51;12.10;51.10
74511;DHT22;62991;50.040;18.400;2022-10-13T01:56:53;12.00;51.20
74511;DHT22;62991;50.040;18.400;2022-10-13T01:59:55;12.00;51.20
74511;DHT22;62991;50.040;18.400;2022-10-13T02:06:18;12.00;51.30
74511;DHT22;62991;50.040;18.400;2022-10-13T02:09:22;12.00;51.40
74511;DHT22;62991;50.040;18.400;2022-10-13T02:15:45;11.90;51.50
74511;DHT22;62991;50.040;18.400;2022-10-13T02:18:47;11.90;51.50
74511;DHT22;62991;50.040;18.400;2022-10-13T02:21:50;11.90;51.50
74511;DHT22;62991;50.040;18.400;2022-10-13T02:24:51;11.90;51.60
74511;DHT22;62991;50.040;18.400;2022-10-13T02:27:52;11.80;51.70
74511;DHT22;62991;50.040;18.400;2022-10-13T02:30:53;11.80;51.70
74511;DHT22;62991;50.040;18.400;2022-10-13T02:33:54;11.80;51.80
74511;DHT22;62991;50.040;18.400;2022-10-13T02:36:54;11.80;51.80
74511;DHT22;62991;50.040;18.400;2022-10-13T02:39:55;11.80;51.90
74511;DHT22;62991;50.040;18.400;2022-10-13T02:42:56;11.80;51.90
74511;DHT22;62991;50.040;18.400;2022-10-13T02:45:57;11.80;52.00
74511;DHT22;62991;50.040;18.400;2022-10-13T02:48:57;11.70;52.00
74511;DHT22;62991;50.040;18.400;2022-10-13T02:51:58;11.70;52.10
74511;DHT22;62991;50.040;18.400;2022-10-13T02:54:59;11.70;52.10
74511;DHT22;62991;50.040;18.400;2022-10-13T02:58:00;11.70;52.10
74511;DHT22;62991;50.040;18.400;2022-10-13T03:01:08;11.70;52.20
74511;DHT22;62991;50.040;18.400;2022-10-13T03:04:10;11.70;52.30
74511;DHT22;62991;50.040;18.400;2022-10-13T03:07:11;11.60;52.30
74511;DHT22;62991;50.040;18.400;2022-10-13T03:10:11;11.70;52.40
74511;DHT22;62991;50.040;18.400;2022-10-13T03:13:12;11.70;52.40
74511;DHT22;62991;50.040;18.400;2022-10-13T03:16:13;11.70;52.40
74511;DHT22;62991;50.040;18.400;2022-10-13T03:19:14;11.60;52.40
74511;DHT22;62991;50.040;18.400;2022-10-13T03:22:14;11.60;52.40
74511;DHT22;62991;50.040;18.400;2022-10-13T03:25:15;11.60;52.40
74511;DHT22;62991;50.040;18.400;2022-10-13T03:28:16;11.60;52.50
74511;DHT22;62991;50.040;18.400;2022-10-13T03:31:17;11.60;52.60
74511;DHT22;62991;50.040;18.400;2022-10-13T03:34:18;11.60;52.50
74511;DHT22;62991;50.040;18.400;2022-10-13T03:37:19;11.60;52.50
74511;DHT22;62991;50.040;18.400;2022-10-13T03:40:20;11.60;52.60
74511;DHT22;62991;50.040;18.400;2022-10-13T03:43:21;11.50;52.60
74511;DHT22;62991;50.040;18.400;2022-10-13T03:46:25;11.50;52.60
74511;DHT22;62991;50.040;18.400;2022-10-13T03:49:26;11.40;52.70
74511;DHT22;62991;50.040;18.400;2022-10-13T03:52:27;11.40;52.70
74511;DHT22;62991;50.040;18.400;2022-10-13T03:55:29;11.40;52.70
74511;DHT22;62991;50.040;18.400;2022-10-13T03:58:29;11.30;52.70
74511;DHT22;62991;50.040;18.400;2022-10-13T04:01:32;11.20;52.70
74511;DHT22;62991;50.040;18.400;2022-10-13T04:04:33;11.20;52.80
74511;DHT22;62991;50.040;18.400;2022-10-13T04:07:34;11.20;52.80
74511;DHT22;62991;50.040;18.400;2022-10-13T04:10:35;11.10;52.90
74511;DHT22;62991;50.040;18.400;2022-10-13T04:13:36;11.10;52.90
74511;DHT22;62991;50.040;18.400;2022-10-13T04:16:37;11.00;52.90
74511;DHT22;62991;50.040;18.400;2022-10-13T04:19:39;11.00;52.90
74511;DHT22;62991;50.040;18.400;2022-10-13T04:22:40;11.00;53.00
74511;DHT22;62991;50.040;18.400;2022-10-13T04:25:41;11.00;53.00
74511;DHT22;62991;50.040;18.400;2022-10-13T04:28:42;11.00;53.10
74511;DHT22;62991;50.040;18.400;2022-10-13T04:31:43;10.90;53.10
74511;DHT22;62991;50.040;18.400;2022-10-13T04:34:44;10.90;53.20
74511;DHT22;62991;50.040;18.400;2022-10-13T04:37:45;10.90;53.20
74511;DHT22;62991;50.040;18.400;2022-10-13T04:40:45;10.90;53.20
74511;DHT22;62991;50.040;18.400;2022-10-13T04:43:50;10.90;53.30
74511;DHT22;62991;50.040;18.400;2022-10-13T04:46:51;10.90;53.40
74511;DHT22;62991;50.040;18.400;2022-10-13T04:49:52;10.90;53.40
74511;DHT22;62991;50.040;18.400;2022-10-13T04:52:52;10.90;53.40
74511;DHT22;62991;50.040;18.400;2022-10-13T04:55:53;10.90;53.40
74511;DHT22;62991;50.040;18.400;2022-10-13T04:58:54;10.90;53.50
74511;DHT22;62991;50.040;18.400;2022-10-13T05:01:55;10.80;53.50
74511;DHT22;62991;50.040;18.400;2022-10-13T05:04:55;10.80;53.60
74511;DHT22;62991;50.040;18.400;2022-10-13T05:07:56;10.80;53.60
74511;DHT22;62991;50.040;18.400;2022-10-13T05:11:00;10.80;53.60
74511;DHT22;62991;50.040;18.400;2022-10-13T05:14:01;10.80;53.60
74511;DHT22;62991;50.040;18.400;2022-10-13T05:17:02;10.80;53.60
74511;DHT22;62991;50.040;18.400;2022-10-13T05:20:03;10.80;53.60
74511;DHT22;62991;50.040;18.400;2022-10-13T05:23:04;10.80;53.60
74511;DHT22;62991;50.040;18.400;2022-10-13T05:26:10;10.80;53.60
74511;DHT22;62991;50.040;18.400;2022-10-13T05:29:11;10.80;53.60
74511;DHT22;62991;50.040;18.400;2022-10-13T05:32:12;10.80;53.70
74511;DHT22;62991;50.040;18.400;2022-10-13T05:35:13;10.80;53.70
74511;DHT22;62991;50.040;18.400;2022-10-13T05:38:13;10.80;53.80
74511;DHT22;62991;50.040;18.400;2022-10-13T05:41:14;10.80;53.90
74511;DHT22;62991;50.040;18.400;2022-10-13T05:44:15;10.90;53.90
74511;DHT22;62991;50.040;18.400;2022-10-13T05:47:16;10.90;53.90
74511;DHT22;62991;50.040;18.400;2022-10-13T05:50:17;11.00;53.90
74511;DHT22;62991;50.040;18.400;2022-10-13T05:53:19;11.00;53.90
74511;DHT22;62991;50.040;18.400;2022-10-13T05:56:24;11.00;54.00
74511;DHT22;62991;50.040;18.400;2022-10-13T05:59:29;11.10;54.00
74511;DHT22;62991;50.040;18.400;2022-10-13T06:02:37;11.10;54.10
74511;DHT22;62991;50.040;18.400;2022-10-13T06:05:40;11.20;54.10
74511;DHT22;62991;50.040;18.400;2022-10-13T06:08:42;11.20;54.10
74511;DHT22;62991;50.040;18.400;2022-10-13T06:11:43;11.30;54.10
74511;DHT22;62991;50.040;18.400;2022-10-13T06:14:44;11.40;54.00
74511;DHT22;62991;50.040;18.400;2022-10-13T06:17:44;11.40;54.00
74511;DHT22;62991;50.040;18.400;2022-10-13T06:20:45;11.40;54.10
74511;DHT22;62991;50.040;18.400;2022-10-13T06:23:46;11.50;54.10
74511;DHT22;62991;50.040;18.400;2022-10-13T06:26:47;11.50;54.10
74511;DHT22;62991;50.040;18.400;2022-10-13T06:29:47;11.50;54.10
74511;DHT22;62991;50.040;18.400;2022-10-13T06:32:48;11.60;54.20
74511;DHT22;62991;50.040;18.400;2022-10-13T06:35:50;11.60;54.10
74511;DHT22;62991;50.040;18.400;2022-10-13T06:38:51;11.60;54.20
74511;DHT22;62991;50.040;18.400;2022-10-13T06:41:52;11.60;54.20
74511;DHT22;62991;50.040;18.400;2022-10-13T06:44:54;11.70;54.20
74511;DHT22;62991;50.040;18.400;2022-10-13T06:47:55;11.70;54.20
74511;DHT22;62991;50.040;18.400;2022-10-13T06:51:09;11.80;54.30
74511;DHT22;62991;50.040;18.400;2022-10-13T06:54:10;11.80;54.30
74511;DHT22;62991;50.040;18.400;2022-10-13T06:57:11;11.90;54.30
74511;DHT22;62991;50.040;18.400;2022-10-13T07:00:12;11.90;54.30
74511;DHT22;62991;50.040;18.400;2022-10-13T07:03:13;12.00;54.30
74511;DHT22;62991;50.040;18.400;2022-10-13T07:06:14;12.00;54.40
74511;DHT22;62991;50.040;18.400;2022-10-13T07:09:14;12.10;54.30
74511;DHT22;62991;50.040;18.400;2022-10-13T07:12:15;12.20;54.40
74511;DHT22;62991;50.040;18.400;2022-10-13T07:15:16;12.20;54.40
74511;DHT22;62991;50.040;18.400;2022-10-13T07:18:17;12.30;54.40
74511;DHT22;62991;50.040;18.400;2022-10-13T07:21:17;12.40;54.40
74511;DHT22;62991;50.040;18.400;2022-10-13T07:24:18;12.50;54.30
74511;DHT22;62991;50.040;18.400;2022-10-13T07:27:19;12.50;54.30
74511;DHT22;62991;50.040;18.400;2022-10-13T07:30:20;12.60;54.30
74511;DHT22;62991;50.040;18.400;2022-10-13T07:33:20;12.70;54.20
74511;DHT22;62991;50.040;18.400;2022-10-13T07:36:21;12.70;54.30
74511;DHT22;62991;50.040;18.400;2022-10-13T07:39:22;12.80;54.30
74511;DHT22;62991;50.040;18.400;2022-10-13T07:42:23;12.80;54.20
74511;DHT22;62991;50.040;18.400;2022-10-13T07:45:24;12.90;54.20
74511;DHT22;62991;50.040;18.400;2022-10-13T07:48:26;12.90;54.30
74511;DHT22;62991;50.040;18.400;2022-10-13T07:51:26;13.00;54.20
74511;DHT22;62991;50.040;18.400;2022-10-13T07:54:27;13.10;54.20
74511;DHT22;62991;50.040;18.400;2022-10-13T07:57:28;13.10;54.20
74511;DHT22;62991;50.040;18.400;2022-10-13T08:00:29;13.20;54.30
74511;DHT22;62991;50.040;18.400;2022-10-13T08:03:30;13.30;54.20
74511;DHT22;62991;50.040;18.400;2022-10-13T08:06:32;13.30;54.20
74511;DHT22;62991;50.040;18.400;2022-10-13T08:09:33;13.40;54.30
74511;DHT22;62991;50.040;18.400;2022-10-13T08:12:35;13.50;54.30
74511;DHT22;62991;50.040;18.400;2022-10-13T08:15:40;13.60;54.30
74511;DHT22;62991;50.040;18.400;2022-10-13T08:18:41;13.70;54.30
74511;DHT22;62991;50.040;18.400;2022-10-13T08:21:42;13.80;54.30
74511;DHT22;62991;50.040;18.400;2022-10-13T08:24:42;13.90;54.20
74511;DHT22;62991;50.040;18.400;2022-10-13T08:27:43;13.90;54.20
74511;DHT22;62991;50.040;18.400;2022-10-13T08:30:44;14.00;54.10
74511;DHT22;62991;50.040;18.400;2022-10-13T08:33:45;14.10;54.10
74511;DHT22;62991;50.040;18.400;2022-10-13T08:36:51;14.20;54.10
74511;DHT22;62991;50.040;18.400;2022-10-13T08:39:56;14.30;54.00
74511;DHT22;62991;50.040;18.400;2022-10-13T08:42:57;14.40;53.90
74511;DHT22;62991;50.040;18.400;2022-10-13T08:45:59;14.50;53.90
74511;DHT22;62991;50.040;18.400;2022-10-13T08:49:00;14.60;53.80
74511;DHT22;62991;50.040;18.400;2022-10-13T08:52:03;14.70;53.70
74511;DHT22;62991;50.040;18.400;2022-10-13T08:55:05;14.70;53.60
74511;DHT22;62991;50.040;18.400;2022-10-13T08:58:14;14.80;53.50
74511;DHT22;62991;50.040;18.400;2022-10-13T09:01:23;14.90;53.60
74511;DHT22;62991;50.040;18.400;2022-10-13T09:04:30;15.00;53.50
74511;DHT22;62991;50.040;18.400;2022-10-13T09:07:35;15.00;53.40
74511;DHT22;62991;50.040;18.400;2022-10-13T09:10:46;15.10;53.30
74511;DHT22;62991;50.040;18.400;2022-10-13T09:13:47;15.20;53.30
74511;DHT22;62991;50.040;18.400;2022-10-13T09:16:49;15.30;53.30
74511;DHT22;62991;50.040;18.400;2022-10-13T09:20:32;15.40;53.20
74511;DHT22;62991;50.040;18.400;2022-10-13T09:23:28;15.40;53.10
74511;DHT22;62991;50.040;18.400;2022-10-13T09:26:29;15.50;53.10
74511;DHT22;62991;50.040;18.400;2022-10-13T09:29:30;15.60;53.10
74511;DHT22;62991;50.040;18.400;2022-10-13T09:32:34;15.70;53.10
74511;DHT22;62991;50.040;18.400;2022-10-13T09:35:36;15.80;52.90
74511;DHT22;62991;50.040;18.400;2022-10-13T09:38:38;15.90;52.80
74511;DHT22;62991;50.040;18.400;2022-10-13T09:41:41;16.00;52.70
74511;DHT22;62991;50.040;18.400;2022-10-13T09:44:42;16.10;52.60
74511;DHT22;62991;50.040;18.400;2022-10-13T09:48:02;16.20;52.60
74511;DHT22;62991;50.040;18.400;2022-10-13T09:51:04;16.30;52.50
74511;DHT22;62991;50.040;18.400;2022-10-13T09:54:05;16.40;52.40
74511;DHT22;62991;50.040;18.400;2022-10-13T09:57:16;16.50;52.40
74511;DHT22;62991;50.040;18.400;2022-10-13T10:00:23;16.60;52.10
74511;DHT22;62991;50.040;18.400;2022-10-13T10:03:33;16.60;52.00
74511;DHT22;62991;50.040;18.400;2022-10-13T10:06:35;16.70;51.80
74511;DHT22;62991;50.040;18.400;2022-10-13T10:09:46;16.80;51.80
74511;DHT22;62991;50.040;18.400;2022-10-13T10:12:48;16.90;51.60
74511;DHT22;62991;50.040;18.400;2022-10-13T10:16:04;17.00;51.50
74511;DHT22;62991;50.040;18.400;2022-10-13T10:29:23;17.40;51.20
74511;DHT22;62991;50.040;18.400;2022-10-13T10:32:27;17.60;51.20
74511;DHT22;62991;50.040;18.400;2022-10-13T10:35:48;17.70;51.10
74511;DHT22;62991;50.040;18.400;2022-10-13T10:45:48;18.20;51.00
74511;DHT22;62991;50.040;18.400;2022-10-13T10:48:53;18.30;51.00
74511;DHT22;62991;50.040;18.400;2022-10-13T10:51:58;18.40;51.00
74511;DHT22;62991;50.040;18.400;2022-10-13T10:58:40;18.70;50.90
74511;DHT22;62991;50.040;18.400;2022-10-13T11:05:07;18.90;50.70
74511;DHT22;62991;50.040;18.400;2022-10-13T11:08:26;19.00;50.70
74511;DHT22;62991;50.040;18.400;2022-10-13T11:14:31;19.00;50.60
74511;DHT22;62991;50.040;18.400;2022-10-13T11:17:36;19.10;50.60
74511;DHT22;62991;50.040;18.400;2022-10-13T11:23:44;19.20;50.60
74511;DHT22;62991;50.040;18.400;2022-10-13T11:26:45;19.30;50.60
74511;DHT22;62991;50.040;18.400;2022-10-13T11:32:48;19.50;50.70
74511;DHT22;62991;50.040;18.400;2022-10-13T11:35:55;19.70;50.50
74511;DHT22;62991;50.040;18.400;2022-10-13T11:42:52;20.00;50.20
74511;DHT22;62991;50.040;18.400;2022-10-13T11:52:45;20.50;50.20
74511;DHT22;62991;50.040;18.400;2022-10-13T11:55:54;20.80;50.20
74511;DHT22;62991;50.040;18.400;2022-10-13T11:58:55;21.10;50.20
74511;DHT22;62991;50.040;18.400;2022-10-13T12:01:58;21.50;50.00
74511;DHT22;62991;50.040;18.400;2022-10-13T12:05:46;21.90;49.70
74511;DHT22;62991;50.040;18.400;2022-10-13T12:08:27;22.40;49.50
74511;DHT22;62991;50.040;18.400;2022-10-13T12:11:32;22.90;49.00
74511;DHT22;62991;50.040;18.400;2022-10-13T12:14:41;23.30;48.60
74511;DHT22;62991;50.040;18.400;2022-10-13T12:17:43;23.80;48.10
74511;DHT22;62991;50.040;18.400;2022-10-13T12:20:51;24.20;47.60
74511;DHT22;62991;50.040;18.400;2022-10-13T12:24:07;24.70;47.00
74511;DHT22;62991;50.040;18.400;2022-10-13T12:27:21;25.10;46.50
74511;DHT22;62991;50.040;18.400;2022-10-13T12:30:30;25.50;46.10
74511;DHT22;62991;50.040;18.400;2022-10-13T12:33:33;25.90;45.50
74511;DHT22;62991;50.040;18.400;2022-10-13T12:36:38;26.30;45.10
74511;DHT22;62991;50.040;18.400;2022-10-13T12:39:39;26.60;44.60
74511;DHT22;62991;50.040;18.400;2022-10-13T12:42:40;26.80;44.10
74511;DHT22;62991;50.040;18.400;2022-10-13T12:45:42;27.10;43.70
74511;DHT22;62991;50.040;18.400;2022-10-13T12:48:43;27.30;43.30
74511;DHT22;62991;50.040;18.400;2022-10-13T12:51:47;27.50;43.00
74511;DHT22;62991;50.040;18.400;2022-10-13T12:54:53;27.70;42.70
74511;DHT22;62991;50.040;18.400;2022-10-13T12:57:54;27.90;42.50
74511;DHT22;62991;50.040;18.400;2022-10-13T13:07:30;28.60;41.30
74511;DHT22;62991;50.040;18.400;2022-10-13T13:10:31;28.90;41.00
74511;DHT22;62991;50.040;18.400;2022-10-13T13:13:34;29.10;40.90
74511;DHT22;62991;50.040;18.400;2022-10-13T13:16:35;29.40;40.60
74511;DHT22;62991;50.040;18.400;2022-10-13T13:19:36;29.70;40.30
74511;DHT22;62991;50.040;18.400;2022-10-13T13:22:36;29.90;39.90
74511;DHT22;62991;50.040;18.400;2022-10-13T13:25:37;29.80;39.60
74511;DHT22;62991;50.040;18.400;2022-10-13T13:31:45;29.50;39.40
74511;DHT22;62991;50.040;18.400;2022-10-13T13:34:46;29.50;39.60
74511;DHT22;62991;50.040;18.400;2022-10-13T13:37:49;29.60;39.50
74511;DHT22;62991;50.040;18.400;2022-10-13T13:40:51;29.80;39.10
74511;DHT22;62991;50.040;18.400;2022-10-13T13:43:51;29.80;39.10
74511;DHT22;62991;50.040;18.400;2022-10-13T13:46:52;29.90;39.00
74511;DHT22;62991;50.040;18.400;2022-10-13T13:49:54;30.10;38.70
74511;DHT22;62991;50.040;18.400;2022-10-13T13:52:56;30.00;38.50
74511;DHT22;62991;50.040;18.400;2022-10-13T13:55:57;30.10;38.60
74511;DHT22;62991;50.040;18.400;2022-10-13T13:58:57;30.10;38.50
74511;DHT22;62991;50.040;18.400;2022-10-13T14:01:58;30.00;38.30
74511;DHT22;62991;50.040;18.400;2022-10-13T14:04:59;29.80;38.20
74511;DHT22;62991;50.040;18.400;2022-10-13T14:08:00;29.40;38.30
74511;DHT22;62991;50.040;18.400;2022-10-13T14:11:05;29.00;38.50
74511;DHT22;62991;50.040;18.400;2022-10-13T14:14:05;28.50;38.80
74511;DHT22;62991;50.040;18.400;2022-10-13T14:17:06;28.00;39.10
74511;DHT22;62991;50.040;18.400;2022-10-13T14:20:07;27.60;39.50
74511;DHT22;62991;50.040;18.400;2022-10-13T14:23:08;27.20;39.80
74511;DHT22;62991;50.040;18.400;2022-10-13T14:26:09;26.80;40.10
74511;DHT22;62991;50.040;18.400;2022-10-13T14:29:09;26.40;40.40
74511;DHT22;62991;50.040;18.400;2022-10-13T14:32:10;26.00;40.80
74511;DHT22;62991;50.040;18.400;2022-10-13T14:35:11;25.60;41.10
74511;DHT22;62991;50.040;18.400;2022-10-13T14:38:11;25.30;41.50
74511;DHT22;62991;50.040;18.400;2022-10-13T14:41:13;25.10;41.70
74511;DHT22;62991;50.040;18.400;2022-10-13T14:44:16;24.80;42.00
74511;DHT22;62991;50.040;18.400;2022-10-13T14:47:17;24.60;42.30
74511;DHT22;62991;50.040;18.400;2022-10-13T14:50:17;24.40;42.40
74511;DHT22;62991;50.040;18.400;2022-10-13T14:53:18;24.30;42.70
74511;DHT22;62991;50.040;18.400;2022-10-13T14:56:27;24.10;43.00
74511;DHT22;62991;50.040;18.400;2022-10-13T14:59:29;23.90;43.30
74511;DHT22;62991;50.040;18.400;2022-10-13T15:02:30;23.70;43.40
74511;DHT22;62991;50.040;18.400;2022-10-13T15:05:31;23.60;43.60
74511;DHT22;62991;50.040;18.400;2022-10-13T15:08:32;23.50;43.80
74511;DHT22;62991;50.040;18.400;2022-10-13T15:11:33;23.30;44.00
74511;DHT22;62991;50.040;18.400;2022-10-13T15:14:33;23.10;44.30
74511;DHT22;62991;50.040;18.400;2022-10-13T15:17:34;23.00;44.50
74511;DHT22;62991;50.040;18.400;2022-10-13T15:20:36;22.80;44.70
74511;DHT22;62991;50.040;18.400;2022-10-13T15:23:37;22.70;44.90
74511;DHT22;62991;50.040;18.400;2022-10-13T15:26:38;22.50;45.10
74511;DHT22;62991;50.040;18.400;2022-10-13T15:29:38;22.40;45.40
74511;DHT22;62991;50.040;18.400;2022-10-13T15:32:39;22.30;45.60
74511;DHT22;62991;50.040;18.400;2022-10-13T15:35:40;22.20;45.70
74511;DHT22;62991;50.040;18.400;2022-10-13T15:38:41;22.10;45.90
74511;DHT22;62991;50.040;18.400;2022-10-13T15:41:41;22.00;46.10
74511;DHT22;62991;50.040;18.400;2022-10-13T15:44:42;21.80;46.30
74511;DHT22;62991;50.040;18.400;2022-10-13T15:47:42;21.70;46.50
74511;DHT22;62991;50.040;18.400;2022-10-13T15:50:43;21.60;46.80
74511;DHT22;62991;50.040;18.400;2022-10-13T15:53:47;21.40;47.00
74511;DHT22;62991;50.040;18.400;2022-10-13T15:56:48;21.30;47.20
74511;DHT22;62991;50.040;18.400;2022-10-13T15:59:49;21.20;47.40
74511;DHT22;62991;50.040;18.400;2022-10-13T16:02:50;21.00;47.60
74511;DHT22;62991;50.040;18.400;2022-10-13T16:05:51;20.90;47.90
74511;DHT22;62991;50.040;18.400;2022-10-13T16:08:52;20.80;48.00
74511;DHT22;62991;50.040;18.400;2022-10-13T16:11:53;20.60;48.20
74511;DHT22;62991;50.040;18.400;2022-10-13T16:14:54;20.50;48.40
74511;DHT22;62991;50.040;18.400;2022-10-13T16:17:54;20.40;48.50
74511;DHT22;62991;50.040;18.400;2022-10-13T16:20:55;20.30;48.70
74511;DHT22;62991;50.040;18.400;2022-10-13T16:23:58;20.20;48.80
74511;DHT22;62991;50.040;18.400;2022-10-13T16:26:59;20.10;49.00
74511;DHT22;62991;50.040;18.400;2022-10-13T16:30:00;20.00;49.20
74511;DHT22;62991;50.040;18.400;2022-10-13T16:33:00;19.90;49.30
74511;DHT22;62991;50.040;18.400;2022-10-13T16:36:03;19.90;49.50
74511;DHT22;62991;50.040;18.400;2022-10-13T16:39:04;19.80;49.60
74511;DHT22;62991;50.040;18.400;2022-10-13T16:42:05;19.70;49.70
74511;DHT22;62991;50.040;18.400;2022-10-13T16:45:07;19.70;49.90
74511;DHT22;62991;50.040;18.400;2022-10-13T16:48:08;19.60;50.00
74511;DHT22;62991;50.040;18.400;2022-10-13T16:51:12;19.60;50.10
74511;DHT22;62991;50.040;18.400;2022-10-13T16:54:13;19.50;50.30
74511;DHT22;62991;50.040;18.400;2022-10-13T16:57:14;19.50;50.40
74511;DHT22;62991;50.040;18.400;2022-10-13T17:00:15;19.50;50.50
74511;DHT22;62991;50.040;18.400;2022-10-13T17:03:16;19.40;50.60
74511;DHT22;62991;50.040;18.400;2022-10-13T17:06:18;19.30;50.70
74511;DHT22;62991;50.040;18.400;2022-10-13T17:09:19;19.30;50.80
74511;DHT22;62991;50.040;18.400;2022-10-13T17:12:20;19.30;50.90
74511;DHT22;62991;50.040;18.400;2022-10-13T17:15:21;19.20;51.00
74511;DHT22;62991;50.040;18.400;2022-10-13T17:18:23;19.20;51.10
74511;DHT22;62991;50.040;18.400;2022-10-13T17:21:23;19.10;51.20
74511;DHT22;62991;50.040;18.400;2022-10-13T17:24:24;19.10;51.30
74511;DHT22;62991;50.040;18.400;2022-10-13T17:27:25;19.10;51.30
74511;DHT22;62991;50.040;18.400;2022-10-13T17:30:26;19.10;51.40
74511;DHT22;62991;50.040;18.400;2022-10-13T17:33:28;19.00;51.60
74511;DHT22;62991;50.040;18.400;2022-10-13T17:36:29;19.00;51.70
74511;DHT22;62991;50.040;18.400;2022-10-13T17:39:33;19.00;51.70
74511;DHT22;62991;50.040;18.400;2022-10-13T17:42:34;18.90;51.80
74511;DHT22;62991;50.040;18.400;2022-10-13T17:45:34;18.90;51.90
74511;DHT22;62991;50.040;18.400;2022-10-13T17:48:35;18.90;52.00
74511;DHT22;62991;50.040;18.400;2022-10-13T17:51:37;18.90;52.10
74511;DHT22;62991;50.040;18.400;2022-10-13T17:54:38;18.90;52.20
74511;DHT22;62991;50.040;18.400;2022-10-13T17:57:38;18.80;52.30
74511;DHT22;62991;50.040;18.400;2022-10-13T18:00:39;18.80;52.40
74511;DHT22;62991;50.040;18.400;2022-10-13T18:03:51;18.80;52.50
74511;DHT22;62991;50.040;18.400;2022-10-13T18:06:52;18.80;52.60
74511;DHT22;62991;50.040;18.400;2022-10-13T18:09:53;18.80;52.70
74511;DHT22;62991;50.040;18.400;2022-10-13T18:12:54;18.70;52.70
74511;DHT22;62991;50.040;18.400;2022-10-13T18:15:54;18.70;52.80
74511;DHT22;62991;50.040;18.400;2022-10-13T18:19:00;18.70;52.90
74511;DHT22;62991;50.040;18.400;2022-10-13T18:22:01;18.70;52.90
74511;DHT22;62991;50.040;18.400;2022-10-13T18:25:02;18.70;53.00
74511;DHT22;62991;50.040;18.400;2022-10-13T18:28:03;18.70;53.10
74511;DHT22;62991;50.040;18.400;2022-10-13T18:31:05;18.70;53.20
74511;DHT22;62991;50.040;18.400;2022-10-13T18:34:12;18.70;53.20
74511;DHT22;62991;50.040;18.400;2022-10-13T18:37:13;18.60;53.30
74511;DHT22;62991;50.040;18.400;2022-10-13T18:40:14;18.60;53.40
74511;DHT22;62991;50.040;18.400;2022-10-13T18:43:15;18.60;53.50
74511;DHT22;62991;50.040;18.400;2022-10-13T18:46:16;18.60;53.50
74511;DHT22;62991;50.040;18.400;2022-10-13T18:49:17;18.50;53.50
74511;DHT22;62991;50.040;18.400;2022-10-13T18:52:20;18.50;53.70
74511;DHT22;62991;50.040;18.400;2022-10-13T18:55:21;18.50;53.70
74511;DHT22;62991;50.040;18.400;2022-10-13T18:58:22;18.50;53.70
74511;DHT22;62991;50.040;18.400;2022-10-13T19:01:24;18.50;53.80
74511;DHT22;62991;50.040;18.400;2022-10-13T19:04:26;18.40;53.90
74511;DHT22;62991;50.040;18.400;2022-10-13T19:07:26;18.40;53.90
74511;DHT22;62991;50.040;18.400;2022-10-13T19:10:27;18.40;54.00
74511;DHT22;62991;50.040;18.400;2022-10-13T19:13:28;18.40;54.10
74511;DHT22;62991;50.040;18.400;2022-10-13T19:16:30;18.40;54.20
74511;DHT22;62991;50.040;18.400;2022-10-13T19:19:31;18.30;54.20
74511;DHT22;62991;50.040;18.400;2022-10-13T19:22:31;18.30;54.30
74511;DHT22;62991;50.040;18.400;2022-10-13T19:25:32;18.30;54.30
74511;DHT22;62991;50.040;18.400;2022-10-13T19:28:33;18.30;54.40
74511;DHT22;62991;50.040;18.400;2022-10-13T19:31:35;18.30;54.50
74511;DHT22;62991;50.040;18.400;2022-10-13T19:34:36;18.20;54.60
74511;DHT22;62991;50.040;18.400;2022-10-13T19:37:38;18.20;54.70
74511;DHT22;62991;50.040;18.400;2022-10-13T19:40:46;18.20;54.70
74511;DHT22;62991;50.040;18.400;2022-10-13T19:43:51;18.20;54.80
74511;DHT22;62991;50.040;18.400;2022-10-13T19:46:53;18.10;54.80
74511;DHT22;62991;50.040;18.400;2022-10-13T19:49:54;18.10;54.90
74511;DHT22;62991;50.040;18.400;2022-10-13T19:52:55;18.10;55.00
74511;DHT22;62991;50.040;18.400;2022-10-13T19:55:56;18.00;55.10
74511;DHT22;62991;50.040;18.400;2022-10-13T19:58:57;18.00;55.10
74511;DHT22;62991;50.040;18.400;2022-10-13T20:01:58;18.00;55.20
74511;DHT22;62991;50.040;18.400;2022-10-13T20:04:59;18.00;55.20
74511;DHT22;62991;50.040;18.400;2022-10-13T20:07:59;18.00;55.30
74511;DHT22;62991;50.040;18.400;2022-10-13T20:11:12;18.00;55.30
74511;DHT22;62991;50.040;18.400;2022-10-13T20:14:14;18.00;55.40